Time;durP1;ratioP1;P1;durP2;ratioP2;P2;SDS_P1;SDS_P2;PMS_P1;PMS_P2;Temp;Humidity;BMP_temperature;BMP_pressure;BME280_temperature;BME280_humidity;BME280_pressure;Samples;Min_cycle;Max_cycle;Signal;HPM_P1;HPM_P2
2021/05/09 00:01:05;;;;;;;2.92;1.65;;;;;19.50;100431.00;;;;5068161;28;20253;-80
2021/05/09 00:03:32;;;;;;;2.45;1.60;;;;;19.40;100432.00;;;;5067655;28;20191;-80
2021/05/09 00:05:59;;;;;;;3.25;1.58;;;;;19.40;100432.00;;;;5067873;28;20208;-80
2021/05/09 00:08:26;;;;;;;4.15;1.48;;;;;19.40;100430.00;;;;5071825;28;20218;-80
2021/05/09 00:10:54;;;;;;;4.45;2.10;;;;;19.30;100429.00;;;;5072551;28;20560;-81
2021/05/09 00:13:20;;;;;;;1.80;1.50;;;;;19.30;100428.00;;;;5068704;28;20199;-81
2021/05/09 00:15:49;;;;;;;2.22;1.70;;;;;19.30;100424.00;;;;5067605;28;20231;-81
2021/05/09 00:18:16;;;;;;;1.98;1.35;;;;;19.30;100421.00;;;;5067278;28;20236;-81
2021/05/09 00:20:43;;;;;;;1.67;1.15;;;;;19.20;100420.00;;;;5086601;28;20639;-81
2021/05/09 00:23:10;;;;;;;2.58;1.50;;;;;19.20;100415.00;;;;5066163;28;20183;-81
2021/05/09 00:25:37;;;;;;;2.42;1.50;;;;;19.20;100411.00;;;;5068609;28;20249;-81
2021/05/09 00:28:05;;;;;;;1.63;1.38;;;;;19.10;100410.00;;;;5068873;28;20605;-80
2021/05/09 00:30:32;;;;;;;2.65;1.35;;;;;19.10;100413.00;;;;5073728;28;20660;-81
2021/05/09 00:32:58;;;;;;;3.08;1.80;;;;;19.00;100403.00;;;;5085950;28;20247;-81
2021/05/09 00:35:25;;;;;;;1.45;1.08;;;;;19.00;100409.00;;;;5069782;28;20215;-81
2021/05/09 00:37:52;;;;;;;2.10;1.35;;;;;19.00;100405.00;;;;5068081;28;20229;-81
2021/05/09 00:40:19;;;;;;;3.05;1.60;;;;;19.00;100403.00;;;;5067321;28;20191;-81
2021/05/09 00:42:45;;;;;;;2.28;1.38;;;;;18.90;100401.00;;;;5067855;28;20195;-82
2021/05/09 00:45:14;;;;;;;2.10;1.40;;;;;18.90;100397.00;;;;5068020;28;20253;-81
2021/05/09 00:47:40;;;;;;;1.55;1.10;;;;;18.90;100394.00;;;;5084823;28;20206;-80
2021/05/09 00:50:08;;;;;;;1.50;1.40;;;;;18.90;100389.00;;;;5079954;28;20211;-81
2021/05/09 00:52:38;;;;;;;3.40;1.38;;;;;18.80;100386.00;;;;5066882;28;20218;-81
2021/05/09 00:55:08;;;;;;;2.13;1.80;;;;;18.80;100378.00;;;;5068255;28;20710;-81
2021/05/09 00:57:37;;;;;;;1.42;1.08;;;;;18.80;100381.00;;;;5070301;28;20195;-81
2021/05/09 01:00:06;;;;;;;3.22;1.38;;;;;18.70;100376.00;;;;5071561;28;20195;-81
2021/05/09 01:02:35;;;;;;;1.80;1.23;;;;;18.80;100377.00;;;;5080216;28;20191;-81
2021/05/09 01:05:03;;;;;;;1.73;1.48;;;;;18.70;100370.00;;;;5070311;28;20202;-81
2021/05/09 01:07:31;;;;;;;1.80;1.48;;;;;18.70;100379.00;;;;5071514;28;20198;-82
2021/05/09 01:10:00;;;;;;;1.83;1.45;;;;;18.70;100370.00;;;;5077863;28;20210;-82
2021/05/09 01:12:27;;;;;;;1.63;1.50;;;;;18.70;100368.00;;;;5073960;28;20202;-81
2021/05/09 01:14:54;;;;;;;2.33;1.50;;;;;18.70;100367.00;;;;5083370;28;20214;-80
2021/05/09 01:17:21;;;;;;;3.55;1.90;;;;;18.70;100362.00;;;;5072331;28;20203;-81
2021/05/09 01:19:48;;;;;;;2.63;1.30;;;;;18.60;100354.00;;;;5074915;28;20214;-81
2021/05/09 01:22:16;;;;;;;1.70;1.40;;;;;18.60;100355.00;;;;5080647;28;20206;-81
2021/05/09 01:24:43;;;;;;;1.50;1.30;;;;;18.60;100357.00;;;;5070427;28;20669;-81
2021/05/09 01:27:09;;;;;;;2.90;1.33;;;;;18.60;100359.00;;;;5069351;28;20202;-80
2021/05/09 01:29:37;;;;;;;1.50;1.23;;;;;18.60;100353.00;;;;5085698;28;20202;-81
2021/05/09 01:32:05;;;;;;;3.33;1.67;;;;;18.60;100351.00;;;;5071653;28;20560;-81
2021/05/09 01:34:35;;;;;;;1.55;1.30;;;;;18.50;100346.00;;;;5080462;28;20695;-81
2021/05/09 01:37:03;;;;;;;2.25;1.65;;;;;18.50;100350.00;;;;5082131;28;20194;-81
2021/05/09 01:39:31;;;;;;;2.33;1.45;;;;;18.50;100343.00;;;;5085243;28;20198;-80
2021/05/09 01:42:00;;;;;;;2.47;1.65;;;;;18.50;100340.00;;;;5069844;28;20720;-81
2021/05/09 01:44:27;;;;;;;1.88;1.33;;;;;18.50;100343.00;;;;5069902;28;20202;-81
2021/05/09 01:46:54;;;;;;;1.83;1.60;;;;;18.50;100335.00;;;;5073459;28;20197;-81
2021/05/09 01:49:21;;;;;;;3.53;1.83;;;;;18.40;100322.00;;;;5090782;28;20244;-80
2021/05/09 01:51:47;;;;;;;1.75;1.40;;;;;18.40;100323.00;;;;5071266;28;20207;-81
2021/05/09 01:54:14;;;;;;;2.03;1.42;;;;;18.40;100321.00;;;;5075184;28;20199;-81
2021/05/09 01:56:42;;;;;;;1.70;1.20;;;;;18.40;100326.00;;;;5070783;28;20270;-81
2021/05/09 01:59:09;;;;;;;1.73;1.50;;;;;18.30;100314.00;;;;5076241;28;20205;-81
2021/05/09 02:01:36;;;;;;;1.60;1.40;;;;;18.30;100314.00;;;;5085724;28;20225;-81
2021/05/09 02:04:04;;;;;;;2.55;1.15;;;;;18.30;100308.00;;;;5069994;28;20203;-80
2021/05/09 02:06:31;;;;;;;2.22;1.77;;;;;18.30;100310.00;;;;5069644;28;20207;-80
2021/05/09 02:08:57;;;;;;;2.42;1.33;;;;;18.20;100309.00;;;;5071067;28;20235;-80
2021/05/09 02:11:24;;;;;;;2.00;1.38;;;;;18.20;100306.00;;;;5070906;28;20199;-81
2021/05/09 02:13:52;;;;;;;1.25;1.15;;;;;18.20;100308.00;;;;5090645;28;20206;-80
2021/05/09 02:16:18;;;;;;;2.85;1.60;;;;;18.20;100297.00;;;;5076772;28;20222;-81
2021/05/09 02:18:45;;;;;;;2.85;2.05;;;;;18.20;100307.00;;;;5069881;28;20206;-81
2021/05/09 02:21:12;;;;;;;1.35;1.25;;;;;18.10;100305.00;;;;5069758;28;20199;-81
2021/05/09 02:23:38;;;;;;;1.83;1.30;;;;;18.10;100307.00;;;;5069489;28;20256;-81
2021/05/09 02:26:05;;;;;;;1.58;1.40;;;;;18.10;100304.00;;;;5069215;28;20203;-81
2021/05/09 02:28:32;;;;;;;2.78;1.60;;;;;18.00;100307.00;;;;5070177;28;20623;-80
2021/05/09 02:30:59;;;;;;;1.65;1.08;;;;;18.00;100297.00;;;;5068618;28;20199;-81
2021/05/09 02:33:26;;;;;;;2.22;1.60;;;;;18.00;100302.00;;;;5069317;28;20207;-81
2021/05/09 02:35:53;;;;;;;1.67;1.42;;;;;17.90;100303.00;;;;5068487;28;20715;-80
2021/05/09 02:38:20;;;;;;;2.60;1.48;;;;;17.90;100303.00;;;;5082296;28;20243;-80
2021/05/09 02:40:46;;;;;;;3.53;1.70;;;;;17.90;100300.00;;;;5088961;28;20245;-81
2021/05/09 02:43:16;;;;;;;1.75;1.52;;;;;17.80;100294.00;;;;5072614;28;20191;-80
2021/05/09 02:45:43;;;;;;;1.77;1.10;;;;;17.80;100293.00;;;;5081138;28;20676;-81
2021/05/09 02:48:11;;;;;;;2.33;1.52;;;;;17.80;100292.00;;;;5080069;28;21011;-81
2021/05/09 02:50:38;;;;;;;1.77;1.52;;;;;17.80;100289.00;;;;5089464;28;20247;-81
2021/05/09 02:53:05;;;;;;;1.55;1.10;;;;;17.80;100290.00;;;;5073806;28;20195;-83
2021/05/09 02:55:31;;;;;;;2.45;1.80;;;;;17.80;100288.00;;;;5069661;28;20223;-81
2021/05/09 02:57:58;;;;;;;1.70;1.42;;;;;17.70;100288.00;;;;5071251;28;20202;-81
2021/05/09 03:00:25;;;;;;;2.72;1.58;;;;;17.70;100292.00;;;;5069521;28;20195;-81
2021/05/09 03:02:52;;;;;;;2.40;1.65;;;;;17.70;100278.00;;;;5068427;28;20253;-81
2021/05/09 03:05:19;;;;;;;4.93;1.90;;;;;17.70;100279.00;;;;5068126;28;21074;-80
2021/05/09 03:07:46;;;;;;;1.95;1.70;;;;;17.70;100277.00;;;;5068600;28;20707;-81
2021/05/09 03:10:13;;;;;;;2.80;1.60;;;;;17.70;100277.00;;;;5068437;28;20560;-81
2021/05/09 03:12:40;;;;;;;4.05;1.58;;;;;17.60;100273.00;;;;5068125;28;20739;-80
2021/05/09 03:15:08;;;;;;;3.03;1.65;;;;;17.60;100281.00;;;;5068035;28;20227;-81
2021/05/09 03:17:34;;;;;;;2.28;1.60;;;;;17.60;100276.00;;;;5068747;28;20221;-81
2021/05/09 03:20:01;;;;;;;2.30;1.48;;;;;17.60;100279.00;;;;5067654;28;20206;-80
2021/05/09 03:22:29;;;;;;;2.78;1.60;;;;;17.50;100271.00;;;;5068237;28;20202;-81
2021/05/09 03:24:56;;;;;;;2.38;1.50;;;;;17.50;100274.00;;;;5069200;28;20565;-81
2021/05/09 03:27:23;;;;;;;2.15;1.60;;;;;17.50;100275.00;;;;5068699;28;20199;-81
2021/05/09 03:29:49;;;;;;;1.92;1.58;;;;;17.50;100271.00;;;;5071638;28;20209;-80
2021/05/09 03:32:16;;;;;;;2.13;1.30;;;;;17.50;100270.00;;;;5076792;28;20284;-80
2021/05/09 03:34:43;;;;;;;2.85;1.73;;;;;17.50;100275.00;;;;5068243;28;20245;-80
2021/05/09 03:37:09;;;;;;;2.28;1.30;;;;;17.40;100276.00;;;;5068151;28;20199;-81
2021/05/09 03:39:37;;;;;;;1.77;1.38;;;;;17.40;100274.00;;;;5068829;28;20225;-81
2021/05/09 03:42:04;;;;;;;1.65;1.52;;;;;17.40;100282.00;;;;5068701;28;20677;-81
2021/05/09 03:44:31;;;;;;;2.95;1.75;;;;;17.40;100269.00;;;;5068321;28;20668;-80
2021/05/09 03:46:58;;;;;;;3.05;2.00;;;;;17.40;100272.00;;;;5083944;28;20194;-80
2021/05/09 03:49:24;;;;;;;1.83;1.30;;;;;17.40;100271.00;;;;5073822;28;20263;-80
2021/05/09 03:51:51;;;;;;;3.80;1.63;;;;;17.40;100262.00;;;;5073097;28;20210;-81
2021/05/09 03:54:18;;;;;;;2.95;1.73;;;;;17.30;100266.00;;;;5068538;28;20212;-81
2021/05/09 03:56:45;;;;;;;2.25;1.70;;;;;17.30;100256.00;;;;5068459;28;20243;-80
2021/05/09 03:59:12;;;;;;;1.52;1.20;;;;;17.30;100262.00;;;;5070766;28;20213;-81
2021/05/09 04:01:39;;;;;;;1.65;1.45;;;;;17.30;100250.00;;;;5078840;28;20199;-80
2021/05/09 04:04:06;;;;;;;1.60;1.48;;;;;17.30;100256.00;;;;5068196;28;20293;-81
2021/05/09 04:06:33;;;;;;;4.03;1.55;;;;;17.30;100251.00;;;;5069444;28;20672;-81
2021/05/09 04:08:59;;;;;;;1.92;1.70;;;;;17.30;100248.00;;;;5068609;28;20707;-80
2021/05/09 04:11:26;;;;;;;2.35;1.55;;;;;17.30;100246.00;;;;5075524;28;20206;-81
2021/05/09 04:13:54;;;;;;;2.35;1.88;;;;;17.30;100239.00;;;;5069151;28;20256;-80
2021/05/09 04:16:20;;;;;;;3.22;1.88;;;;;17.30;100240.00;;;;5068786;28;20275;-81
2021/05/09 04:18:47;;;;;;;2.60;2.00;;;;;17.30;100237.00;;;;5077399;28;20740;-80
2021/05/09 04:21:14;;;;;;;3.10;2.00;;;;;17.30;100236.00;;;;5077665;28;20526;-81
2021/05/09 04:23:40;;;;;;;3.10;1.80;;;;;17.30;100238.00;;;;5068451;28;20203;-81
2021/05/09 04:26:07;;;;;;;2.58;2.10;;;;;17.30;100236.00;;;;5067249;28;20190;-80
2021/05/09 04:28:34;;;;;;;3.13;2.25;;;;;17.30;100237.00;;;;5068430;28;20665;-80
2021/05/09 04:31:01;;;;;;;2.63;2.20;;;;;17.30;100235.00;;;;5070506;28;20203;-81
2021/05/09 04:33:29;;;;;;;2.42;1.70;;;;;17.30;100236.00;;;;5083133;28;20219;-80
2021/05/09 04:35:55;;;;;;;2.30;2.00;;;;;17.40;100236.00;;;;5072889;28;20223;-80
2021/05/09 04:38:22;;;;;;;3.25;2.47;;;;;17.40;100228.00;;;;5071162;28;20191;-81
2021/05/09 04:40:50;;;;;;;2.22;1.70;;;;;17.40;100241.00;;;;5083140;28;20199;-80
2021/05/09 04:43:18;;;;;;;2.70;1.95;;;;;17.40;100236.00;;;;5071730;28;20289;-81
2021/05/09 04:45:49;;;;;;;2.42;1.80;;;;;17.50;100236.00;;;;5071393;28;20195;-81
2021/05/09 04:48:17;;;;;;;3.67;2.00;;;;;17.50;100241.00;;;;5071653;28;20203;-80
2021/05/09 04:50:43;;;;;;;2.20;2.00;;;;;17.60;100235.00;;;;5074802;28;20202;-81
2021/05/09 04:53:23;;;;;;;3.08;2.10;;;;;17.60;100241.00;;;;5071553;28;20191;-81
2021/05/09 04:55:50;;;;;;;2.47;1.80;;;;;17.70;100239.00;;;;5071147;28;20226;-80
2021/05/09 04:58:17;;;;;;;2.85;1.85;;;;;17.70;100252.00;;;;5071666;28;20707;-81
2021/05/09 05:00:44;;;;;;;3.58;2.20;;;;;17.80;100250.00;;;;5071712;28;20198;-81
2021/05/09 05:03:10;;;;;;;2.53;1.92;;;;;17.90;100248.00;;;;5075402;28;20691;-81
2021/05/09 05:05:38;;;;;;;2.03;1.83;;;;;17.90;100241.00;;;;5070776;28;20194;-80
2021/05/09 05:08:05;;;;;;;3.33;2.08;;;;;18.00;100242.00;;;;5068340;28;20234;-80
2021/05/09 05:10:32;;;;;;;2.88;2.30;;;;;18.00;100239.00;;;;5074024;28;20194;-80
2021/05/09 05:12:59;;;;;;;4.32;2.25;;;;;18.10;100241.00;;;;5070710;28;20187;-80
2021/05/09 05:15:25;;;;;;;2.42;1.83;;;;;18.10;100245.00;;;;5071414;28;20222;-80
2021/05/09 05:17:52;;;;;;;4.30;2.35;;;;;18.20;100235.00;;;;5070658;28;20203;-80
2021/05/09 05:20:19;;;;;;;4.82;2.75;;;;;18.30;100237.00;;;;5071623;28;22307;-81
2021/05/09 05:22:47;;;;;;;3.88;1.95;;;;;18.30;100237.00;;;;5073558;28;20706;-81
2021/05/09 05:25:14;;;;;;;3.45;2.03;;;;;18.40;100235.00;;;;5070468;28;20210;-81
2021/05/09 05:27:41;;;;;;;2.30;2.00;;;;;18.50;100239.00;;;;5083905;28;20743;-81
2021/05/09 05:30:08;;;;;;;2.97;2.25;;;;;18.50;100237.00;;;;5076903;28;20199;-80
2021/05/09 05:32:35;;;;;;;2.08;1.88;;;;;18.60;100237.00;;;;5088388;28;20190;-81
2021/05/09 05:35:02;;;;;;;2.92;1.98;;;;;18.70;100232.00;;;;5088375;28;20680;-81
2021/05/09 05:37:29;;;;;;;2.30;2.00;;;;;18.70;100230.00;;;;5084266;28;20199;-81
2021/05/09 05:39:56;;;;;;;2.70;2.28;;;;;18.80;100233.00;;;;5081945;28;20206;-81
2021/05/09 05:42:23;;;;;;;2.28;1.80;;;;;18.80;100234.00;;;;5076421;28;20198;-81
2021/05/09 05:44:50;;;;;;;5.55;2.58;;;;;18.90;100229.00;;;;5070458;28;20652;-81
2021/05/09 05:47:16;;;;;;;5.55;2.40;;;;;19.00;100230.00;;;;5072480;28;20202;-81
2021/05/09 05:49:43;;;;;;;2.55;2.33;;;;;19.10;100230.00;;;;5080027;28;20190;-81
2021/05/09 05:52:10;;;;;;;3.05;2.28;;;;;19.20;100233.00;;;;5081061;28;20257;-81
2021/05/09 05:54:36;;;;;;;2.75;2.33;;;;;19.20;100235.00;;;;5070623;28;20206;-81
2021/05/09 05:57:05;;;;;;;3.90;2.40;;;;;19.30;100231.00;;;;5080204;28;20233;-81
2021/05/09 05:59:31;;;;;;;2.35;1.75;;;;;19.40;100226.00;;;;5082926;28;20199;-81
2021/05/09 06:01:59;;;;;;;3.10;2.42;;;;;19.50;100227.00;;;;5077465;28;20195;-81
2021/05/09 06:04:26;;;;;;;6.00;2.50;;;;;19.60;100226.00;;;;5070767;28;20207;-81
2021/05/09 06:06:53;;;;;;;3.53;2.58;;;;;19.70;100216.00;;;;5086363;28;20206;-82
2021/05/09 06:09:19;;;;;;;3.08;2.55;;;;;19.80;100222.00;;;;5069481;28;20223;-81
2021/05/09 06:11:46;;;;;;;2.75;2.17;;;;;19.90;100221.00;;;;5076362;28;20199;-82
2021/05/09 06:14:14;;;;;;;2.42;2.03;;;;;20.00;100223.00;;;;5087954;28;20231;-81
2021/05/09 06:16:40;;;;;;;2.75;2.28;;;;;20.10;100217.00;;;;5074861;28;20671;-81
2021/05/09 06:19:07;;;;;;;2.75;2.50;;;;;20.20;100219.00;;;;5072399;28;20205;-82
2021/05/09 06:21:34;;;;;;;2.03;1.90;;;;;20.30;100203.00;;;;5085028;28;20210;-82
2021/05/09 06:24:01;;;;;;;5.72;2.47;;;;;20.40;100206.00;;;;5070049;28;20198;-81
2021/05/09 06:26:27;;;;;;;3.45;2.30;;;;;20.50;100199.00;;;;5077201;28;20199;-81
2021/05/09 06:28:54;;;;;;;2.33;1.85;;;;;20.50;100190.00;;;;5076910;28;20191;-82
2021/05/09 06:31:22;;;;;;;3.00;2.33;;;;;20.60;100193.00;;;;5070891;28;20207;-81
2021/05/09 06:33:49;;;;;;;3.83;2.20;;;;;20.70;100188.00;;;;5080899;28;20248;-82
2021/05/09 06:36:15;;;;;;;2.40;2.08;;;;;20.80;100191.00;;;;5073917;28;20283;-82
2021/05/09 06:38:42;;;;;;;2.85;2.20;;;;;20.80;100186.00;;;;5069269;28;20187;-81
2021/05/09 06:41:09;;;;;;;2.22;1.83;;;;;20.90;100189.00;;;;5074281;28;20691;-81
2021/05/09 06:43:36;;;;;;;3.10;2.42;;;;;21.00;100196.00;;;;5068462;28;20187;-82
2021/05/09 06:46:03;;;;;;;2.80;2.25;;;;;21.00;100193.00;;;;5072750;28;20199;-81
2021/05/09 06:48:31;;;;;;;6.25;2.38;;;;;21.10;100192.00;;;;5080656;28;20672;-81
2021/05/09 06:50:58;;;;;;;2.95;2.40;;;;;21.20;100192.00;;;;5082368;28;20198;-80
2021/05/09 06:53:25;;;;;;;2.28;1.98;;;;;21.30;100187.00;;;;5084338;28;20206;-81
2021/05/09 06:55:51;;;;;;;2.45;2.15;;;;;21.40;100189.00;;;;5088346;28;20226;-82
2021/05/09 06:58:20;;;;;;;2.35;2.00;;;;;21.50;100179.00;;;;5089031;28;20396;-81
2021/05/09 07:00:46;;;;;;;3.53;2.20;;;;;21.60;100174.00;;;;5080342;28;20231;-82
2021/05/09 07:03:13;;;;;;;2.65;2.35;;;;;21.70;100181.00;;;;5069454;28;20202;-82
2021/05/09 07:05:41;;;;;;;3.42;2.38;;;;;21.80;100173.00;;;;5069469;28;20723;-81
2021/05/09 07:08:08;;;;;;;3.90;2.45;;;;;21.90;100170.00;;;;5069403;28;20238;-82
2021/05/09 07:10:36;;;;;;;1.80;1.70;;;;;21.90;100170.00;;;;5067805;28;20202;-81
2021/05/09 07:13:03;;;;;;;2.20;2.00;;;;;22.00;100176.00;;;;5068772;28;20199;-81
2021/05/09 07:15:34;;;;;;;2.70;1.95;;;;;22.10;100174.00;;;;5081286;28;20691;-83
2021/05/09 07:18:05;;;;;;;2.97;1.95;;;;;22.10;100164.00;;;;5067678;28;20202;-81
2021/05/09 07:20:34;;;;;;;2.10;1.80;;;;;22.20;100150.00;;;;5085014;28;20190;-81
2021/05/09 07:23:02;;;;;;;3.00;2.60;;;;;22.30;100156.00;;;;5078939;28;20252;-81
2021/05/09 07:25:29;;;;;;;2.25;2.05;;;;;22.30;100151.00;;;;5073855;28;20770;-81
2021/05/09 07:28:05;;;;;;;2.45;2.03;;;;;22.30;100158.00;;;;5080358;28;20581;-82
2021/05/09 07:30:31;;;;;;;3.10;2.17;;;;;22.50;100168.00;;;;5068076;28;20230;-82
2021/05/09 07:32:58;;;;;;;4.25;2.10;;;;;22.50;100163.00;;;;5070493;28;20199;-81
2021/05/09 07:35:25;;;;;;;1.98;1.83;;;;;22.60;100143.00;;;;5084333;28;20228;-82
2021/05/09 07:37:52;;;;;;;2.50;1.63;;;;;22.70;100137.00;;;;5067823;28;20203;-81
2021/05/09 07:40:20;;;;;;;2.20;1.70;;;;;22.70;100120.00;;;;5079392;28;20213;-83
2021/05/09 07:42:47;;;;;;;4.32;1.92;;;;;22.80;100116.00;;;;5079884;28;20256;-82
2021/05/09 07:45:17;;;;;;;4.30;2.10;;;;;22.90;100108.00;;;;5068016;28;20195;-81
2021/05/09 07:47:44;;;;;;;2.25;1.90;;;;;23.00;100107.00;;;;5075753;28;20231;-81
2021/05/09 07:50:12;;;;;;;1.80;1.70;;;;;23.10;100104.00;;;;5081886;28;20731;-81
2021/05/09 07:52:39;;;;;;;1.90;1.77;;;;;23.20;100105.00;;;;5074446;28;20203;-79
2021/05/09 07:55:07;;;;;;;2.78;2.00;;;;;23.30;100094.00;;;;5074336;28;20217;-80
2021/05/09 07:57:35;;;;;;;2.38;2.10;;;;;23.40;100092.00;;;;5067701;28;20293;-79
2021/05/09 08:00:03;;;;;;;2.70;1.83;;;;;23.50;100088.00;;;;5067625;28;20245;-80
2021/05/09 08:02:29;;;;;;;2.20;1.98;;;;;23.70;100070.00;;;;5082387;28;20634;-80
2021/05/09 08:04:56;;;;;;;2.55;1.98;;;;;23.80;100068.00;;;;5086109;28;20251;-80
2021/05/09 08:07:23;;;;;;;2.60;2.40;;;;;23.80;100073.00;;;;5090721;28;20205;-80
2021/05/09 08:09:49;;;;;;;2.50;2.15;;;;;23.90;100076.00;;;;5071538;28;20223;-79
2021/05/09 08:12:16;;;;;;;4.15;2.50;;;;;23.90;100073.00;;;;5072038;28;20209;-80
2021/05/09 08:14:44;;;;;;;3.78;2.95;;;;;23.90;100066.00;;;;5072430;28;20203;-79
2021/05/09 08:17:10;;;;;;;4.10;1.98;;;;;24.00;100066.00;;;;5071860;28;20222;-82
2021/05/09 08:19:37;;;;;;;3.40;2.40;;;;;24.00;100062.00;;;;5071842;28;20205;-80
2021/05/09 08:22:05;;;;;;;3.03;2.03;;;;;24.00;100080.00;;;;5073856;28;20203;-80
2021/05/09 08:24:32;;;;;;;3.00;2.15;;;;;24.10;100093.00;;;;5091856;28;20750;-80
2021/05/09 08:26:59;;;;;;;3.05;2.15;;;;;24.10;100099.00;;;;5102352;28;20374;-81
2021/05/09 08:29:26;;;;;;;2.88;2.20;;;;;24.20;100095.00;;;;5092397;28;20190;-80
2021/05/09 08:31:53;;;;;;;2.65;2.17;;;;;24.20;100102.00;;;;5090516;28;20330;-80
2021/05/09 08:34:20;;;;;;;2.35;2.03;;;;;24.30;100108.00;;;;5074688;28;20207;-80
2021/05/09 08:36:47;;;;;;;3.95;2.33;;;;;24.40;100098.00;;;;5089810;28;20225;-81
2021/05/09 08:39:13;;;;;;;3.28;2.28;;;;;24.50;100095.00;;;;5078235;28;20195;-80
2021/05/09 08:41:41;;;;;;;2.75;2.22;;;;;24.60;100095.00;;;;5071018;28;20256;-80
2021/05/09 08:44:09;;;;;;;3.70;2.08;;;;;24.80;100101.00;;;;5070697;28;20252;-81
2021/05/09 08:46:37;;;;;;;1.88;1.73;;;;;24.80;100101.00;;;;5071249;28;20199;-83
2021/05/09 08:49:05;;;;;;;2.28;1.75;;;;;24.90;100098.00;;;;5082223;28;20213;-81
2021/05/09 08:51:32;;;;;;;3.15;1.98;;;;;24.90;100101.00;;;;5082379;28;20198;-80
2021/05/09 08:53:59;;;;;;;2.72;2.22;;;;;25.00;100101.00;;;;5071404;28;20203;-81
2021/05/09 08:56:26;;;;;;;1.90;1.75;;;;;25.00;100094.00;;;;5075027;28;20225;-79
2021/05/09 08:58:53;;;;;;;2.22;1.92;;;;;25.10;100088.00;;;;5074309;28;20199;-79
2021/05/09 09:01:20;;;;;;;3.13;1.92;;;;;25.10;100092.00;;;;5071382;28;20195;-78
2021/05/09 09:03:47;;;;;;;2.92;2.08;;;;;25.20;100085.00;;;;5071864;28;20233;-78
2021/05/09 09:06:17;;;;;;;2.67;1.90;;;;;25.30;100082.00;;;;5071113;28;20198;-79
2021/05/09 09:08:51;;;;;;;5.30;2.05;;;;;25.30;100078.00;;;;5072992;28;20226;-78
2021/05/09 09:11:28;;;;;;;4.07;2.33;;;;;25.50;100063.00;;;;5083484;28;20199;-78
2021/05/09 09:14:08;;;;;;;2.40;2.03;;;;;25.60;100061.00;;;;5079445;28;20195;-79
2021/05/09 09:16:35;;;;;;;4.03;2.13;;;;;25.80;100067.00;;;;5091012;28;20260;-79
2021/05/09 09:19:09;;;;;;;2.65;2.17;;;;;25.80;100068.00;;;;5086728;28;20203;-78
2021/05/09 09:21:37;;;;;;;3.55;2.60;;;;;26.00;100058.00;;;;5080396;28;20202;-79
2021/05/09 09:24:06;;;;;;;3.45;1.75;;;;;26.10;100052.00;;;;5080826;28;20198;-78
2021/05/09 09:26:40;;;;;;;3.78;2.30;;;;;26.20;100051.00;;;;5072648;28;20737;-79
2021/05/09 09:29:22;;;;;;;3.10;2.53;;;;;26.30;100063.00;;;;5077527;28;20197;-77
2021/05/09 09:31:53;;;;;;;3.53;1.90;;;;;26.50;100053.00;;;;5083166;28;20796;-77
2021/05/09 09:34:21;;;;;;;2.47;1.95;;;;;26.70;100046.00;;;;5076724;28;20191;-78
2021/05/09 09:36:49;;;;;;;2.75;2.17;;;;;26.80;100046.00;;;;5084321;28;20257;-77
2021/05/09 09:39:16;;;;;;;1.85;1.55;;;;;27.00;100037.00;;;;5074651;28;20203;-77
2021/05/09 09:41:47;;;;;;;2.70;1.67;;;;;27.10;100041.00;;;;5081661;28;20199;-78
2021/05/09 09:44:16;;;;;;;2.60;1.95;;;;;27.20;100049.00;;;;5088960;28;20244;-78
2021/05/09 09:46:49;;;;;;;2.45;1.73;;;;;27.40;100055.00;;;;5090228;28;20305;-78
2021/05/09 09:49:21;;;;;;;2.00;1.80;;;;;27.50;100038.00;;;;5087166;28;20229;-77
2021/05/09 09:51:53;;;;;;;1.63;1.42;;;;;27.60;100033.00;;;;5082671;28;20209;-78
2021/05/09 09:54:38;;;;;;;2.67;1.98;;;;;27.70;100029.00;;;;5074878;28;20195;-79
2021/05/09 09:57:07;;;;;;;3.47;1.80;;;;;27.80;100014.00;;;;5087620;28;20598;-78
2021/05/09 09:59:34;;;;;;;1.90;1.42;;;;;27.90;99992.00;;;;5086369;28;20268;-78
2021/05/09 10:02:04;;;;;;;3.50;1.92;;;;;28.00;99997.00;;;;5080089;28;20198;-78
2021/05/09 10:04:31;;;;;;;2.72;1.90;;;;;28.10;99998.00;;;;5073009;28;20653;-78
2021/05/09 10:07:04;;;;;;;1.60;1.50;;;;;28.20;99994.00;;;;5089778;28;20564;-78
2021/05/09 10:09:31;;;;;;;1.90;1.75;;;;;28.30;100008.00;;;;5078117;28;20210;-79
2021/05/09 10:11:58;;;;;;;1.88;1.50;;;;;28.40;100002.00;;;;5074040;28;20191;-79
2021/05/09 10:14:25;;;;;;;2.40;2.00;;;;;28.40;100000.00;;;;5069969;28;20688;-78
2021/05/09 10:16:52;;;;;;;3.97;1.70;;;;;28.50;100010.00;;;;5084492;28;20233;-78
2021/05/09 10:19:24;;;;;;;2.80;1.50;;;;;28.50;100007.00;;;;5077535;28;20198;-78
2021/05/09 10:21:51;;;;;;;1.20;1.10;;;;;28.70;99999.00;;;;5080184;28;20203;-78
2021/05/09 10:24:21;;;;;;;2.42;1.25;;;;;28.70;99999.00;;;;5079381;28;20206;-78
2021/05/09 10:26:54;;;;;;;1.88;1.50;;;;;28.80;99981.00;;;;5087110;28;20207;-79
2021/05/09 10:29:47;;;;;;;3.47;1.75;;;;;28.80;99990.00;;;;5089967;28;20194;-78
2021/05/09 10:32:48;;;;;;;2.20;1.60;;;;;29.00;99993.00;;;;5074589;28;20631;-77
2021/05/09 10:35:30;;;;;;;2.60;1.85;;;;;29.30;99987.00;;;;5088245;28;20230;-75
2021/05/09 10:38:07;;;;;;;2.03;1.77;;;;;29.30;99989.00;;;;5078888;28;20235;-77
2021/05/09 10:40:36;;;;;;;2.53;1.45;;;;;29.50;99998.00;;;;5086603;28;20198;-77
2021/05/09 10:43:31;;;;;;;2.60;1.60;;;;;29.50;99987.00;;;;5082927;28;20208;-77
2021/05/09 10:45:58;;;;;;;1.48;1.33;;;;;29.70;99989.00;;;;5071081;28;20217;-77
2021/05/09 10:48:30;;;;;;;1.65;1.25;;;;;29.70;99975.00;;;;5072456;28;20202;-78
2021/05/09 10:51:30;;;;;;;1.52;1.35;;;;;29.70;99986.00;;;;5076008;28;20355;-78
2021/05/09 10:54:20;;;;;;;1.90;1.30;;;;;29.70;99953.00;;;;5067435;28;20587;-78
2021/05/09 10:56:48;;;;;;;2.78;1.42;;;;;29.90;99953.00;;;;5068779;28;20705;-77
2021/05/09 10:59:15;;;;;;;2.70;1.27;;;;;29.90;99959.00;;;;5069103;28;20245;-78
2021/05/09 11:01:41;;;;;;;2.03;1.23;;;;;30.00;99958.00;;;;5069879;28;20206;-79
2021/05/09 11:04:09;;;;;;;2.92;1.33;;;;;29.90;99955.00;;;;5086372;28;20207;-80
2021/05/09 11:06:47;;;;;;;2.55;1.40;;;;;29.80;99962.00;;;;5071437;28;20675;-79
2021/05/09 11:09:15;;;;;;;3.22;1.55;;;;;29.80;99969.00;;;;5077462;28;20256;-78
2021/05/09 11:12:03;;;;;;;2.17;1.67;;;;;29.60;99964.00;;;;5083541;28;20210;-77
2021/05/09 11:14:34;;;;;;;1.10;1.00;;;;;29.60;99976.00;;;;5072829;28;20211;-76
2021/05/09 11:17:03;;;;;;;2.03;1.25;;;;;29.50;99976.00;;;;5068531;28;20230;-77
2021/05/09 11:19:55;;;;;;;3.80;2.08;;;;;29.30;99974.00;;;;5082702;28;20445;-77
2021/05/09 11:22:26;;;;;;;2.28;1.90;;;;;29.40;99953.00;;;;5076785;28;20270;-77
2021/05/09 11:24:58;;;;;;;2.13;1.25;;;;;29.40;99932.00;;;;5072802;28;20195;-77
2021/05/09 11:27:27;;;;;;;1.98;1.58;;;;;29.50;99926.00;;;;5072020;28;20195;-77
2021/05/09 11:29:54;;;;;;;1.55;1.25;;;;;29.60;99915.00;;;;5073312;28;20207;-76
2021/05/09 11:32:23;;;;;;;1.55;1.38;;;;;29.50;99916.00;;;;5072981;28;20588;-78
2021/05/09 11:34:52;;;;;;;1.67;1.05;;;;;29.50;99922.00;;;;5076116;28;20198;-77
2021/05/09 11:37:19;;;;;;;1.48;1.38;;;;;29.40;99947.00;;;;5086385;28;20222;-77
2021/05/09 11:39:46;;;;;;;1.77;1.55;;;;;29.40;99961.00;;;;5076840;28;20326;-76
2021/05/09 11:42:15;;;;;;;4.95;1.40;;;;;29.30;99979.00;;;;5068184;28;20203;-74
2021/05/09 11:44:44;;;;;;;1.42;1.33;;;;;29.20;99973.00;;;;5072240;28;20214;-76
2021/05/09 11:47:12;;;;;;;1.58;1.13;;;;;29.20;99950.00;;;;5067405;28;20233;-76
2021/05/09 11:49:40;;;;;;;4.68;1.92;;;;;29.10;99936.00;;;;5068446;28;20665;-76
2021/05/09 11:52:11;;;;;;;3.33;1.52;;;;;29.10;99934.00;;;;5068464;28;20203;-76
2021/05/09 11:54:43;;;;;;;2.10;1.52;;;;;29.00;99977.00;;;;5069312;28;20572;-78
2021/05/09 11:57:10;;;;;;;1.65;1.52;;;;;28.90;100026.00;;;;5067762;28;20246;-77
2021/05/09 11:59:40;;;;;;;2.85;1.88;;;;;28.80;100061.00;;;;5081960;28;20197;-76
2021/05/09 12:02:31;;;;;;;2.67;1.92;;;;;28.50;100052.00;;;;5070042;28;20297;-77
2021/05/09 12:05:01;;;;;;;2.10;1.70;;;;;28.60;100039.00;;;;5082026;28;20213;-77
2021/05/09 12:07:29;;;;;;;1.83;1.60;;;;;28.40;100018.00;;;;5078605;28;20199;-78
2021/05/09 12:09:59;;;;;;;3.08;1.40;;;;;28.30;100039.00;;;;5070528;28;20235;-77
2021/05/09 12:12:29;;;;;;;2.08;1.35;;;;;28.30;100016.00;;;;5073502;28;20661;-78
2021/05/09 12:15:02;;;;;;;4.45;1.63;;;;;28.20;100038.00;;;;5080401;28;20203;-81